PWSweather.com
Personal Weather Stations
Station Observations
KMIEASTT1
Tawas Bay, East Tawas, MI 48730

Tawas BayEast Tawas, MI 48730

Lat: 44.28, Lon: -83.48

Elevation: 600

Station Type: Davis VantagePro

http://www.tawasbayweather.com

High Low Average
Temperature 31.2°F-0.4°C 19.6°F-6.9°C 25.6°F-3.6°C
Dew Point 27.5°F-2.5°C 11.3°F-11.5°C 21.0°F-6.1°C
Winds 19.0 mph 30.6 kmh 4.0 mph 6.4 kmh 11.0 mph SSE17.7 kmh SSE
Wind Gusts 23.0 mph37.0 kmh 7.0 mph11.3 kmh 14.0 mph22.5 kmh
Humidity 92% 69% 83%
Pressure 30.33 in1027.1 mb 29.99 in1015.6 mb -
Precipitation 0.00 in0.0 mm - -
Hour Temp Dew Point Humidity Winds Wind Gusts Pressure Precip Precip Rate Daily Precip Total
12:01 AM 19.8°F-6.8°C 12.3°F-10.9°C 72% 5.0 mph S8.0 kmh S 7.0 mph11.3 kmh 30.33 in1027.1 mb 0.00 in0.0 mm 0.00 in/hr0.0 mm/hr 0.00 in0.0 mm
12:15 AM 19.6°F-6.9°C 11.7°F-11.3°C 71% 7.0 mph S11.3 kmh S 8.0 mph12.9 kmh 30.33 in1027.1 mb 0.00 in0.0 mm 0.00 in/hr0.0 mm/hr 0.00 in0.0 mm
12:31 AM 19.8°F-6.8°C 12.3°F-10.9°C 72% 6.0 mph SSE9.7 kmh SSE 9.0 mph14.5 kmh 30.33 in1027.1 mb 0.00 in0.0 mm 0.00 in/hr0.0 mm/hr 0.00 in0.0 mm
12:46 AM 19.9°F-6.7°C 12.3°F-10.9°C 72% 4.0 mph SSE6.4 kmh SSE 7.0 mph11.3 kmh 30.33 in1027.1 mb 0.00 in0.0 mm 0.00 in/hr0.0 mm/hr 0.00 in0.0 mm
01:01 AM 19.9°F-6.7°C 11.4°F-11.4°C 69% 6.0 mph S9.7 kmh S 8.0 mph12.9 kmh 30.32 in1026.8 mb 0.00 in0.0 mm 0.00 in/hr0.0 mm/hr 0.00 in0.0 mm
01:16 AM 19.8°F-6.8°C 11.3°F-11.5°C 69% 6.0 mph SSE9.7 kmh SSE 7.0 mph11.3 kmh 30.31 in1026.4 mb 0.00 in0.0 mm 0.00 in/hr0.0 mm/hr 0.00 in0.0 mm
01:30 AM 20.0°F-6.7°C 12.1°F-11.1°C 71% 6.0 mph SSE9.7 kmh SSE 7.0 mph11.3 kmh 30.31 in1026.4 mb 0.00 in0.0 mm 0.00 in/hr0.0 mm/hr 0.00 in0.0 mm
01:45 AM 20.4°F-6.4°C 13.8°F-10.1°C 75% 7.0 mph SSE11.3 kmh SSE 8.0 mph12.9 kmh 30.31 in1026.4 mb 0.00 in0.0 mm 0.00 in/hr0.0 mm/hr 0.00 in0.0 mm
02:01 AM 20.6°F-6.3°C 12.4°F-10.9°C 70% 9.0 mph SSE14.5 kmh SSE 10.0 mph16.1 kmh 30.30 in1026.1 mb 0.00 in0.0 mm 0.00 in/hr0.0 mm/hr 0.00 in0.0 mm
02:15 AM 20.7°F-6.3°C 13.7°F-10.2°C 74% 7.0 mph S11.3 kmh S 8.0 mph12.9 kmh 30.31 in1026.4 mb 0.00 in0.0 mm 0.00 in/hr0.0 mm/hr 0.00 in0.0 mm
02:30 AM 21.0°F-6.1°C 14.0°F-10.0°C 74% 6.0 mph SSE9.7 kmh SSE 11.0 mph17.7 kmh 30.30 in1026.1 mb 0.00 in0.0 mm 0.00 in/hr0.0 mm/hr 0.00 in0.0 mm
02:45 AM 21.1°F-6.1°C 15.0°F-9.4°C 77% 7.0 mph SSE11.3 kmh SSE 9.0 mph14.5 kmh 30.31 in1026.4 mb 0.00 in0.0 mm 0.00 in/hr0.0 mm/hr 0.00 in0.0 mm
03:01 AM 21.8°F-5.7°C 16.3°F-8.7°C 79% 8.0 mph S12.9 kmh S 10.0 mph16.1 kmh 30.31 in1026.4 mb 0.00 in0.0 mm 0.00 in/hr0.0 mm/hr 0.00 in0.0 mm
03:15 AM 22.0°F-5.6°C 16.2°F-8.8°C 78% 6.0 mph SSE9.7 kmh SSE 9.0 mph14.5 kmh 30.31 in1026.4 mb 0.00 in0.0 mm 0.00 in/hr0.0 mm/hr 0.00 in0.0 mm
03:30 AM 21.9°F-5.6°C 16.7°F-8.5°C 80% 7.0 mph S11.3 kmh S 8.0 mph12.9 kmh 30.31 in1026.4 mb 0.00 in0.0 mm 0.00 in/hr0.0 mm/hr 0.00 in0.0 mm
03:45 AM 22.2°F-5.4°C 17.0°F-8.3°C 80% 6.0 mph SE9.7 kmh SE 10.0 mph16.1 kmh 30.30 in1026.1 mb 0.00 in0.0 mm 0.00 in/hr0.0 mm/hr 0.00 in0.0 mm
04:01 AM 22.6°F-5.2°C 17.4°F-8.1°C 80% 9.0 mph SSE14.5 kmh SSE 10.0 mph16.1 kmh 30.29 in1025.7 mb 0.00 in0.0 mm 0.00 in/hr0.0 mm/hr 0.00 in0.0 mm
04:15 AM 22.9°F-5.1°C 18.0°F-7.8°C 81% 9.0 mph SSE14.5 kmh SSE 14.0 mph22.5 kmh 30.28 in1025.4 mb 0.00 in0.0 mm 0.00 in/hr0.0 mm/hr 0.00 in0.0 mm
04:30 AM 23.3°F-4.8°C 18.1°F-7.7°C 80% 11.0 mph SSE17.7 kmh SSE 15.0 mph24.1 kmh 30.28 in1025.4 mb 0.00 in0.0 mm 0.00 in/hr0.0 mm/hr 0.00 in0.0 mm
04:45 AM 23.7°F-4.6°C 18.2°F-7.7°C 79% 10.0 mph SE16.1 kmh SE 17.0 mph27.4 kmh 30.30 in1026.1 mb 0.00 in0.0 mm 0.00 in/hr0.0 mm/hr 0.00 in0.0 mm
05:01 AM 23.6°F-4.7°C 18.4°F-7.6°C 80% 12.0 mph SSE19.3 kmh SSE 14.0 mph22.5 kmh 30.31 in1026.4 mb 0.00 in0.0 mm 0.00 in/hr0.0 mm/hr 0.00 in0.0 mm
05:15 AM 23.2°F-4.9°C 18.3°F-7.6°C 81% 12.0 mph SE19.3 kmh SE 13.0 mph20.9 kmh 30.29 in1025.7 mb 0.00 in0.0 mm 0.00 in/hr0.0 mm/hr 0.00 in0.0 mm
05:31 AM 23.3°F-4.8°C 17.5°F-8.1°C 78% 13.0 mph SE20.9 kmh SE 17.0 mph27.4 kmh 30.30 in1026.1 mb 0.00 in0.0 mm 0.00 in/hr0.0 mm/hr 0.00 in0.0 mm
05:45 AM 23.3°F-4.8°C 17.8°F-7.9°C 79% 10.0 mph SE16.1 kmh SE 13.0 mph20.9 kmh 30.29 in1025.7 mb 0.00 in0.0 mm 0.00 in/hr0.0 mm/hr 0.00 in0.0 mm
06:01 AM 23.3°F-4.8°C 18.1°F-7.7°C 80% 10.0 mph SE16.1 kmh SE 13.0 mph20.9 kmh 30.29 in1025.7 mb 0.00 in0.0 mm 0.00 in/hr0.0 mm/hr 0.00 in0.0 mm
06:15 AM 23.6°F-4.7°C 18.6°F-7.4°C 81% 9.0 mph SE14.5 kmh SE 13.0 mph20.9 kmh 30.28 in1025.4 mb 0.00 in0.0 mm 0.00 in/hr0.0 mm/hr 0.00 in0.0 mm
06:30 AM 23.7°F-4.6°C 19.0°F-7.2°C 82% 9.0 mph SE14.5 kmh SE 12.0 mph19.3 kmh 30.28 in1025.4 mb 0.00 in0.0 mm 0.00 in/hr0.0 mm/hr 0.00 in0.0 mm
06:45 AM 24.0°F-4.4°C 19.3°F-7.1°C 82% 10.0 mph SE16.1 kmh SE 13.0 mph20.9 kmh 30.27 in1025.1 mb 0.00 in0.0 mm 0.00 in/hr0.0 mm/hr 0.00 in0.0 mm
07:01 AM 24.0°F-4.4°C 19.6°F-6.9°C 83% 11.0 mph SE17.7 kmh SE 13.0 mph20.9 kmh 30.26 in1024.7 mb 0.00 in0.0 mm 0.00 in/hr0.0 mm/hr 0.00 in0.0 mm
07:15 AM 24.0°F-4.4°C 19.6°F-6.9°C 83% 13.0 mph SE20.9 kmh SE 14.0 mph22.5 kmh 30.25 in1024.4 mb 0.00 in0.0 mm 0.00 in/hr0.0 mm/hr 0.00 in0.0 mm
07:30 AM 23.8°F-4.6°C 19.4°F-7.0°C 83% 12.0 mph SE19.3 kmh SE 13.0 mph20.9 kmh 30.25 in1024.4 mb 0.00 in0.0 mm 0.00 in/hr0.0 mm/hr 0.00 in0.0 mm
07:45 AM 23.8°F-4.6°C 19.7°F-6.8°C 84% 12.0 mph SE19.3 kmh SE 14.0 mph22.5 kmh 30.24 in1024.0 mb 0.00 in0.0 mm 0.00 in/hr0.0 mm/hr 0.00 in0.0 mm
08:01 AM 24.2°F-4.3°C 20.6°F-6.3°C 86% 11.0 mph SE17.7 kmh SE 14.0 mph22.5 kmh 30.24 in1024.0 mb 0.00 in0.0 mm 0.00 in/hr0.0 mm/hr 0.00 in0.0 mm
08:16 AM 24.5°F-4.2°C 20.9°F-6.2°C 86% 13.0 mph SE20.9 kmh SE 15.0 mph24.1 kmh 30.24 in1024.0 mb 0.00 in0.0 mm 0.00 in/hr0.0 mm/hr 0.00 in0.0 mm
08:31 AM 24.7°F-4.1°C 21.1°F-6.1°C 86% 12.0 mph SSE19.3 kmh SSE 17.0 mph27.4 kmh 30.25 in1024.4 mb 0.00 in0.0 mm 0.00 in/hr0.0 mm/hr 0.00 in0.0 mm
08:45 AM 24.9°F-3.9°C 21.6°F-5.8°C 87% 15.0 mph SE24.1 kmh SE 17.0 mph27.4 kmh 30.25 in1024.4 mb 0.00 in0.0 mm 0.00 in/hr0.0 mm/hr 0.00 in0.0 mm
09:02 AM 24.9°F-3.9°C 21.6°F-5.8°C 87% 12.0 mph SE19.3 kmh SE 18.0 mph29.0 kmh 30.24 in1024.0 mb 0.00 in0.0 mm 0.00 in/hr0.0 mm/hr 0.00 in0.0 mm
09:15 AM 25.1°F-3.8°C 21.8°F-5.7°C 87% 13.0 mph SE20.9 kmh SE 18.0 mph29.0 kmh 30.24 in1024.0 mb 0.00 in0.0 mm 0.00 in/hr0.0 mm/hr 0.00 in0.0 mm
09:31 AM 25.3°F-3.7°C 22.0°F-5.6°C 87% 16.0 mph SE25.7 kmh SE 18.0 mph29.0 kmh 30.23 in1023.7 mb 0.00 in0.0 mm 0.00 in/hr0.0 mm/hr 0.00 in0.0 mm
09:45 AM 25.4°F-3.7°C 22.4°F-5.3°C 88% 12.0 mph SE19.3 kmh SE 18.0 mph29.0 kmh 30.20 in1022.7 mb 0.00 in0.0 mm 0.00 in/hr0.0 mm/hr 0.00 in0.0 mm
10:01 AM 25.8°F-3.4°C 22.5°F-5.3°C 87% 14.0 mph SE22.5 kmh SE 18.0 mph29.0 kmh 30.20 in1022.7 mb 0.00 in0.0 mm 0.00 in/hr0.0 mm/hr 0.00 in0.0 mm
10:16 AM 25.9°F-3.4°C 22.6°F-5.2°C 87% 11.0 mph SE17.7 kmh SE 16.0 mph25.7 kmh 30.20 in1022.7 mb 0.00 in0.0 mm 0.00 in/hr0.0 mm/hr 0.00 in0.0 mm
10:30 AM 26.2°F-3.2°C 22.9°F-5.1°C 87% 14.0 mph SSE22.5 kmh SSE 16.0 mph25.7 kmh 30.19 in1022.4 mb 0.00 in0.0 mm 0.00 in/hr0.0 mm/hr 0.00 in0.0 mm
10:45 AM 26.7°F-2.9°C 23.4°F-4.8°C 87% 14.0 mph SE22.5 kmh SE 17.0 mph27.4 kmh 30.18 in1022.0 mb 0.00 in0.0 mm 0.00 in/hr0.0 mm/hr 0.00 in0.0 mm
11:02 AM 26.7°F-2.9°C 23.1°F-4.9°C 86% 17.0 mph SSE27.4 kmh SSE 19.0 mph30.6 kmh 30.17 in1021.7 mb 0.00 in0.0 mm 0.00 in/hr0.0 mm/hr 0.00 in0.0 mm
11:15 AM 26.7°F-2.9°C 23.4°F-4.8°C 87% 15.0 mph SSE24.1 kmh SSE 16.0 mph25.7 kmh 30.18 in1022.0 mb 0.00 in0.0 mm 0.00 in/hr0.0 mm/hr 0.00 in0.0 mm
11:31 AM 26.4°F-3.1°C 23.3°F-4.8°C 88% 12.0 mph SSE19.3 kmh SSE 15.0 mph24.1 kmh 30.17 in1021.7 mb 0.00 in0.0 mm 0.00 in/hr0.0 mm/hr 0.00 in0.0 mm
11:46 AM 26.5°F-3.1°C 23.4°F-4.8°C 88% 16.0 mph SE25.7 kmh SE 16.0 mph25.7 kmh 30.15 in1021.0 mb 0.00 in0.0 mm 0.00 in/hr0.0 mm/hr 0.00 in0.0 mm
12:01 PM 26.6°F-3.0°C 23.5°F-4.7°C 88% 10.0 mph SE16.1 kmh SE 16.0 mph25.7 kmh 30.15 in1021.0 mb 0.00 in0.0 mm 0.00 in/hr0.0 mm/hr 0.00 in0.0 mm
12:16 PM 27.1°F-2.7°C 23.8°F-4.6°C 87% 11.0 mph SE17.7 kmh SE 16.0 mph25.7 kmh 30.14 in1020.7 mb 0.00 in0.0 mm 0.00 in/hr0.0 mm/hr 0.00 in0.0 mm
12:30 PM 27.8°F-2.3°C 24.4°F-4.2°C 87% 13.0 mph SE20.9 kmh SE 14.0 mph22.5 kmh 30.13 in1020.3 mb 0.00 in0.0 mm 0.00 in/hr0.0 mm/hr 0.00 in0.0 mm
12:46 PM 28.0°F-2.2°C 24.4°F-4.2°C 86% 13.0 mph SE20.9 kmh SE 15.0 mph24.1 kmh 30.12 in1020.0 mb 0.00 in0.0 mm 0.00 in/hr0.0 mm/hr 0.00 in0.0 mm
01:01 PM 28.8°F-1.8°C 24.9°F-3.9°C 85% 12.0 mph SSE19.3 kmh SSE 15.0 mph24.1 kmh 30.11 in1019.6 mb 0.00 in0.0 mm 0.00 in/hr0.0 mm/hr 0.00 in0.0 mm
01:17 PM 28.7°F-1.8°C 25.1°F-3.8°C 86% 11.0 mph SE17.7 kmh SE 13.0 mph20.9 kmh 30.09 in1019.0 mb 0.00 in0.0 mm 0.00 in/hr0.0 mm/hr 0.00 in0.0 mm
01:31 PM 29.5°F-1.4°C 25.3°F-3.7°C 84% 11.0 mph SSE17.7 kmh SSE 14.0 mph22.5 kmh 30.08 in1018.6 mb 0.00 in0.0 mm 0.00 in/hr0.0 mm/hr 0.00 in0.0 mm
01:46 PM 29.8°F-1.2°C 25.6°F-3.6°C 84% 13.0 mph SE20.9 kmh SE 14.0 mph22.5 kmh 30.07 in1018.3 mb 0.00 in0.0 mm 0.00 in/hr0.0 mm/hr 0.00 in0.0 mm
02:02 PM 29.9°F-1.2°C 25.7°F-3.5°C 84% 15.0 mph SE24.1 kmh SE 15.0 mph24.1 kmh 30.06 in1017.9 mb 0.00 in0.0 mm 0.00 in/hr0.0 mm/hr 0.00 in0.0 mm
02:16 PM 30.2°F-1.0°C 26.0°F-3.3°C 84% 10.0 mph SE16.1 kmh SE 13.0 mph20.9 kmh 30.05 in1017.6 mb 0.00 in0.0 mm 0.00 in/hr0.0 mm/hr 0.00 in0.0 mm
02:31 PM 30.4°F-0.9°C 25.9°F-3.4°C 83% 10.0 mph SSE16.1 kmh SSE 14.0 mph22.5 kmh 30.04 in1017.3 mb 0.00 in0.0 mm 0.00 in/hr0.0 mm/hr 0.00 in0.0 mm
02:46 PM 30.6°F-0.8°C 26.4°F-3.1°C 84% 9.0 mph SSE14.5 kmh SSE 13.0 mph20.9 kmh 30.04 in1017.3 mb 0.00 in0.0 mm 0.00 in/hr0.0 mm/hr 0.00 in0.0 mm
03:01 PM 30.7°F-0.7°C 26.2°F-3.2°C 83% 12.0 mph SE19.3 kmh SE 13.0 mph20.9 kmh 30.04 in1017.3 mb 0.00 in0.0 mm 0.00 in/hr0.0 mm/hr 0.00 in0.0 mm
03:16 PM 31.0°F-0.6°C 26.7°F-2.9°C 84% 8.0 mph SSE12.9 kmh SSE 10.0 mph16.1 kmh 30.04 in1017.3 mb 0.00 in0.0 mm 0.00 in/hr0.0 mm/hr 0.00 in0.0 mm
03:31 PM 31.1°F-0.5°C 26.8°F-2.9°C 84% 9.0 mph SSE14.5 kmh SSE 11.0 mph17.7 kmh 30.02 in1016.6 mb 0.00 in0.0 mm 0.00 in/hr0.0 mm/hr 0.00 in0.0 mm
03:46 PM 31.1°F-0.5°C 26.8°F-2.9°C 84% 9.0 mph SE14.5 kmh SE 11.0 mph17.7 kmh 30.01 in1016.3 mb 0.00 in0.0 mm 0.00 in/hr0.0 mm/hr 0.00 in0.0 mm
04:01 PM 31.1°F-0.5°C 27.1°F-2.7°C 85% 8.0 mph SE12.9 kmh SE 11.0 mph17.7 kmh 30.01 in1016.3 mb 0.00 in0.0 mm 0.00 in/hr0.0 mm/hr 0.00 in0.0 mm
04:16 PM 31.0°F-0.6°C 27.3°F-2.6°C 86% 10.0 mph SE16.1 kmh SE 13.0 mph20.9 kmh 30.00 in1015.9 mb 0.00 in0.0 mm 0.00 in/hr0.0 mm/hr 0.00 in0.0 mm
04:31 PM 31.2°F-0.4°C 27.5°F-2.5°C 86% 11.0 mph S17.7 kmh S 12.0 mph19.3 kmh 30.01 in1016.3 mb 0.00 in0.0 mm 0.00 in/hr0.0 mm/hr 0.00 in0.0 mm
04:45 PM 31.1°F-0.5°C 27.4°F-2.6°C 86% 13.0 mph SSE20.9 kmh SSE 15.0 mph24.1 kmh 30.00 in1015.9 mb 0.00 in0.0 mm 0.00 in/hr0.0 mm/hr 0.00 in0.0 mm
05:01 PM 30.6°F-0.8°C 26.6°F-3.0°C 85% 16.0 mph SE25.7 kmh SE 16.0 mph25.7 kmh 30.00 in1015.9 mb 0.00 in0.0 mm 0.00 in/hr0.0 mm/hr 0.00 in0.0 mm
05:16 PM 30.0°F-1.1°C 26.9°F-2.8°C 88% 17.0 mph SSE27.4 kmh SSE 22.0 mph35.4 kmh 29.99 in1015.6 mb 0.00 in0.0 mm 0.00 in/hr0.0 mm/hr 0.00 in0.0 mm
05:31 PM 29.3°F-1.5°C 26.7°F-2.9°C 90% 16.0 mph SSE25.7 kmh SSE 23.0 mph37.0 kmh 29.99 in1015.6 mb 0.00 in0.0 mm 0.00 in/hr0.0 mm/hr 0.00 in0.0 mm
05:46 PM 29.3°F-1.5°C 26.7°F-2.9°C 90% 19.0 mph SSE30.6 kmh SSE 22.0 mph35.4 kmh 30.00 in1015.9 mb 0.00 in0.0 mm 0.00 in/hr0.0 mm/hr 0.00 in0.0 mm
06:02 PM 29.8°F-1.2°C 27.5°F-2.5°C 91% 17.0 mph SSE27.4 kmh SSE 20.0 mph32.2 kmh 30.00 in1015.9 mb 0.00 in0.0 mm 0.00 in/hr0.0 mm/hr 0.00 in0.0 mm
06:15 PM 29.8°F-1.2°C 27.5°F-2.5°C 91% 16.0 mph SSE25.7 kmh SSE 21.0 mph33.8 kmh 30.00 in1015.9 mb 0.00 in0.0 mm 0.00 in/hr0.0 mm/hr 0.00 in0.0 mm
06:30 PM 29.5°F-1.4°C 27.5°F-2.5°C 92% 13.0 mph SSE20.9 kmh SSE 21.0 mph33.8 kmh 29.99 in1015.6 mb 0.00 in0.0 mm 0.00 in/hr0.0 mm/hr 0.00 in0.0 mm
06:45 PM 29.4°F-1.4°C 27.4°F-2.6°C 92% 17.0 mph SSE27.4 kmh SSE 21.0 mph33.8 kmh 29.99 in1015.6 mb 0.00 in0.0 mm 0.00 in/hr0.0 mm/hr 0.00 in0.0 mm
07:02 PM 29.0°F-1.7°C 27.0°F-2.8°C 92% 18.0 mph S29.0 kmh S 22.0 mph35.4 kmh 30.00 in1015.9 mb 0.00 in0.0 mm 0.00 in/hr0.0 mm/hr 0.00 in0.0 mm
07:16 PM 28.8°F-1.8°C 26.8°F-2.9°C 92% 18.0 mph S29.0 kmh S 20.0 mph32.2 kmh 29.98 in1015.2 mb 0.00 in0.0 mm 0.00 in/hr0.0 mm/hr 0.00 in0.0 mm
07:30 PM 28.6°F-1.9°C 26.6°F-3.0°C 92% 16.0 mph S25.7 kmh S 21.0 mph33.8 kmh 29.98 in1015.2 mb 0.00 in0.0 mm 0.00 in/hr0.0 mm/hr 0.00 in0.0 mm
07:46 PM 28.5°F-1.9°C 26.5°F-3.1°C 92% 14.0 mph S22.5 kmh S 17.0 mph27.4 kmh 29.98 in1015.2 mb 0.00 in0.0 mm 0.00 in/hr0.0 mm/hr 0.00 in0.0 mm
08:01 PM 28.4°F-2.0°C 26.6°F-3.0°C 93% 16.0 mph S25.7 kmh S 17.0 mph27.4 kmh 29.98 in1015.2 mb 0.00 in0.0 mm 0.00 in/hr0.0 mm/hr 0.00 in0.0 mm
08:16 PM 28.4°F-2.0°C 26.9°F-2.8°C 94% 14.0 mph SSE22.5 kmh SSE 18.0 mph29.0 kmh 29.97 in1014.9 mb 0.00 in0.0 mm 0.00 in/hr0.0 mm/hr 0.00 in0.0 mm
08:31 PM 28.5°F-1.9°C 27.0°F-2.8°C 94% 15.0 mph SSE24.1 kmh SSE 17.0 mph27.4 kmh 29.95 in1014.2 mb 0.00 in0.0 mm 0.00 in/hr0.0 mm/hr 0.00 in0.0 mm
08:46 PM 28.7°F-1.8°C 27.2°F-2.7°C 94% 11.0 mph SSE17.7 kmh SSE 14.0 mph22.5 kmh 29.95 in1014.2 mb 0.00 in0.0 mm 0.00 in/hr0.0 mm/hr 0.00 in0.0 mm
09:01 PM 29.0°F-1.7°C 27.5°F-2.5°C 94% 10.0 mph SSE16.1 kmh SSE 14.0 mph22.5 kmh 29.93 in1013.5 mb 0.00 in0.0 mm 0.00 in/hr0.0 mm/hr 0.00 in0.0 mm
09:15 PM 29.3°F-1.5°C 28.1°F-2.2°C 95% 10.0 mph SE16.1 kmh SE 14.0 mph22.5 kmh 29.92 in1013.2 mb 0.00 in0.0 mm 0.00 in/hr0.0 mm/hr 0.00 in0.0 mm
09:30 PM 29.8°F-1.2°C 28.6°F-1.9°C 95% 6.0 mph S9.7 kmh S 11.0 mph17.7 kmh 29.92 in1013.2 mb 0.00 in0.0 mm 0.00 in/hr0.0 mm/hr 0.00 in0.0 mm
09:46 PM 30.4°F-0.9°C 29.1°F-1.6°C 95% 6.0 mph S9.7 kmh S 11.0 mph17.7 kmh 29.92 in1013.2 mb 0.00 in0.0 mm 0.00 in/hr0.0 mm/hr 0.00 in0.0 mm
10:01 PM 31.0°F-0.6°C 30.0°F-1.1°C 96% 9.0 mph SSE14.5 kmh SSE 13.0 mph20.9 kmh 29.90 in1012.5 mb 0.00 in0.0 mm 0.00 in/hr0.0 mm/hr 0.00 in0.0 mm
10:15 PM 31.2°F-0.4°C 30.2°F-1.0°C 96% 10.0 mph S16.1 kmh S 11.0 mph17.7 kmh 29.90 in1012.5 mb 0.00 in0.0 mm 0.00 in/hr0.0 mm/hr 0.00 in0.0 mm
10:30 PM 31.7°F-0.2°C 30.7°F-0.7°C 96% 7.0 mph SSE11.3 kmh SSE 9.0 mph14.5 kmh 29.89 in1012.2 mb 0.00 in0.0 mm 0.00 in/hr0.0 mm/hr 0.00 in0.0 mm
10:45 PM 32.1°F0.1°C 31.1°F-0.5°C 96% 8.0 mph SE12.9 kmh SE 11.0 mph17.7 kmh 29.88 in1011.9 mb 0.00 in0.0 mm 0.00 in/hr0.0 mm/hr 0.00 in0.0 mm
11:01 PM 32.2°F0.1°C 31.2°F-0.4°C 96% 7.0 mph SSE11.3 kmh SSE 9.0 mph14.5 kmh 29.88 in1011.9 mb 0.00 in0.0 mm 0.00 in/hr0.0 mm/hr 0.00 in0.0 mm
11:15 PM 32.3°F0.2°C 31.3°F-0.4°C 96% 6.0 mph SE9.7 kmh SE 8.0 mph12.9 kmh 29.86 in1011.2 mb 0.00 in0.0 mm 0.00 in/hr0.0 mm/hr 0.00 in0.0 mm
11:30 PM 32.4°F0.2°C 31.7°F-0.2°C 97% 6.0 mph SE9.7 kmh SE 7.0 mph11.3 kmh 29.85 in1010.8 mb 0.00 in0.0 mm 0.00 in/hr0.0 mm/hr 0.00 in0.0 mm
11:45 PM 32.3°F0.2°C 31.3°F-0.4°C 96% 8.0 mph ESE12.9 kmh ESE 9.0 mph14.5 kmh 29.82 in1009.8 mb 0.00 in0.0 mm 0.00 in/hr0.0 mm/hr 0.00 in0.0 mm